createdAt,value
2022-12-04T00:01:20.984Z,8.43
2022-12-04T00:03:52.496Z,9.67
2022-12-04T00:06:20.520Z,8.90
2022-12-04T00:08:48.500Z,9.07
2022-12-04T00:11:17.083Z,9.00
2022-12-04T00:13:44.900Z,9.63
2022-12-04T00:16:13.714Z,9.37
2022-12-04T00:18:41.359Z,9.43
2022-12-04T00:21:11.748Z,10.03
2022-12-04T00:23:39.820Z,8.97
2022-12-04T00:26:08.970Z,9.23
2022-12-04T00:28:36.620Z,10.10
2022-12-04T00:31:06.005Z,9.77
2022-12-04T00:33:33.670Z,10.23
2022-12-04T00:36:01.892Z,9.57
2022-12-04T00:38:30.877Z,9.10
2022-12-04T00:40:58.368Z,9.83
2022-12-04T00:43:25.813Z,9.40
2022-12-04T00:45:53.427Z,10.60
2022-12-04T00:48:20.963Z,10.17
2022-12-04T00:50:48.662Z,10.47
2022-12-04T00:53:16.152Z,11.17
2022-12-04T00:55:45.030Z,10.07
2022-12-04T00:58:12.834Z,9.70
2022-12-04T01:00:40.987Z,10.93
2022-12-04T01:03:08.706Z,10.20
2022-12-04T01:05:39.066Z,11.27
2022-12-04T01:08:06.696Z,10.60
2022-12-04T01:10:34.487Z,9.73
2022-12-04T01:13:03.296Z,9.80
2022-12-04T01:15:30.754Z,9.77
2022-12-04T01:17:58.213Z,10.37
2022-12-04T01:20:25.793Z,11.17
2022-12-04T01:22:53.242Z,9.70
2022-12-04T01:25:20.811Z,9.57
2022-12-04T01:27:48.276Z,9.67
2022-12-04T01:30:17.639Z,9.80
2022-12-04T01:32:45.152Z,10.83
2022-12-04T01:35:12.605Z,10.93
2022-12-04T01:37:40.066Z,11.10
2022-12-04T01:40:08.243Z,11.37
2022-12-04T01:42:36.424Z,10.57
2022-12-04T01:45:37.044Z,11.30
2022-12-04T01:48:09.441Z,11.00
2022-12-04T01:50:37.252Z,10.20
2022-12-04T01:53:04.714Z,11.27
2022-12-04T01:55:32.615Z,10.10
2022-12-04T01:58:00.138Z,10.83
2022-12-04T02:00:27.794Z,10.90
2022-12-04T02:02:55.569Z,11.93
2022-12-04T02:05:24.988Z,11.50
2022-12-04T02:07:53.662Z,10.20
2022-12-04T02:10:24.476Z,10.17
2022-12-04T02:12:56.082Z,12.23
2022-12-04T02:15:24.436Z,10.83
2022-12-04T02:17:54.999Z,11.93
2022-12-04T02:20:30.754Z,11.33
2022-12-04T02:26:29.947Z,11.23
2022-12-04T02:29:01.867Z,11.70
2022-12-04T02:31:32.657Z,11.00
2022-12-04T02:34:02.363Z,12.00
2022-12-04T02:36:31.727Z,11.00
2022-12-04T02:39:00.718Z,11.40
2022-12-04T02:41:30.711Z,12.00
2022-12-04T02:44:02.656Z,11.50
2022-12-04T02:46:33.219Z,12.10
2022-12-04T02:49:02.125Z,11.73
2022-12-04T02:51:31.499Z,11.77
2022-12-04T02:54:00.682Z,13.43
2022-12-04T02:56:29.914Z,12.37
2022-12-04T02:58:59.416Z,13.30
2022-12-04T03:01:29.964Z,11.70
2022-12-04T03:04:00.093Z,11.73
2022-12-04T03:06:29.103Z,13.20
2022-12-04T03:09:00.245Z,13.50
2022-12-04T03:11:29.809Z,13.30
2022-12-04T03:13:59.160Z,11.77
2022-12-04T03:16:30.673Z,12.47
2022-12-04T03:19:00.036Z,12.00
2022-12-04T03:21:29.691Z,12.37
2022-12-04T03:24:00.252Z,13.90
2022-12-04T03:26:30.341Z,13.27
2022-12-04T03:29:00.369Z,12.77
2022-12-04T03:31:35.593Z,13.67
2022-12-04T03:34:05.004Z,12.77
2022-12-04T03:36:34.588Z,14.67
2022-12-04T03:39:03.931Z,12.40
2022-12-04T03:41:34.143Z,14.07
2022-12-04T03:44:03.866Z,13.70
2022-12-04T03:46:35.203Z,13.97
2022-12-04T03:49:08.339Z,15.97
2022-12-04T03:51:37.608Z,14.30
2022-12-04T03:54:06.274Z,14.83
2022-12-04T03:56:36.095Z,15.47
2022-12-04T03:59:05.871Z,13.70
2022-12-04T04:01:36.065Z,13.73
2022-12-04T04:04:07.472Z,15.97
2022-12-04T04:06:37.931Z,15.20
2022-12-04T04:09:10.232Z,14.50
2022-12-04T04:11:41.443Z,15.50
2022-12-04T04:14:30.487Z,13.27
2022-12-04T04:17:18.112Z,15.67
2022-12-04T04:20:06.400Z,15.00
2022-12-04T04:22:55.995Z,13.63
2022-12-04T04:25:24.962Z,13.30
2022-12-04T04:27:53.326Z,13.00
2022-12-04T04:30:21.264Z,13.57
2022-12-04T04:32:55.451Z,14.37
2022-12-04T04:35:25.464Z,13.00
2022-12-04T04:37:56.699Z,12.93
2022-12-04T04:40:26.477Z,14.47
2022-12-04T04:42:59.167Z,14.63
2022-12-04T04:45:28.472Z,14.87
2022-12-04T04:48:00.921Z,13.73
2022-12-04T04:50:28.661Z,14.53
2022-12-04T04:52:59.216Z,14.70
2022-12-04T04:55:27.111Z,14.00
2022-12-04T04:57:54.543Z,14.30
2022-12-04T05:00:22.582Z,14.70
2022-12-04T05:02:50.356Z,14.90
2022-12-04T05:05:19.377Z,16.00
2022-12-04T05:07:46.901Z,14.83
2022-12-04T05:10:14.450Z,15.57
2022-12-04T05:12:41.891Z,15.03
2022-12-04T05:15:09.858Z,17.03
2022-12-04T05:17:37.363Z,15.80
2022-12-04T05:20:03.931Z,15.47
2022-12-04T05:22:33.640Z,16.17
2022-12-04T05:25:01.597Z,16.77
2022-12-04T05:27:30.095Z,16.40
2022-12-04T05:29:58.688Z,15.63
2022-12-04T05:32:27.424Z,14.30
2022-12-04T05:34:55.812Z,16.37
2022-12-04T05:37:23.525Z,17.00
2022-12-04T05:39:52.315Z,14.90
2022-12-04T05:42:19.828Z,15.17
2022-12-04T05:44:47.290Z,15.30
2022-12-04T05:47:14.777Z,17.13
2022-12-04T05:49:42.193Z,17.53
2022-12-04T05:52:10.555Z,16.90
2022-12-04T05:54:38.091Z,16.27
2022-12-04T05:57:07.120Z,15.50
2022-12-04T05:59:34.836Z,17.37
2022-12-04T06:02:02.340Z,16.37
2022-12-04T06:04:29.997Z,14.97
2022-12-04T06:06:57.419Z,15.70
2022-12-04T06:09:24.863Z,15.73
2022-12-04T06:11:52.282Z,15.73
2022-12-04T06:14:21.063Z,16.30
2022-12-04T06:16:48.672Z,14.40
2022-12-04T06:19:17.461Z,16.20
2022-12-04T06:21:45.828Z,16.13
2022-12-04T06:24:14.419Z,16.83
2022-12-04T06:27:03.889Z,17.53
2022-12-04T06:29:30.787Z,17.03
2022-12-04T06:31:58.791Z,17.53
2022-12-04T06:34:26.408Z,17.83
2022-12-04T06:36:54.074Z,18.73
2022-12-04T06:39:21.537Z,17.47
2022-12-04T06:41:48.998Z,16.87
2022-12-04T06:44:16.752Z,18.33
2022-12-04T06:46:47.337Z,18.23
2022-12-04T06:49:15.466Z,17.63
2022-12-04T06:51:42.940Z,18.93
2022-12-04T06:54:11.214Z,43.20
2022-12-04T06:56:38.678Z,70.73
2022-12-04T06:59:06.297Z,28.93
2022-12-04T07:01:34.900Z,25.17
2022-12-04T07:04:04.823Z,22.47
2022-12-04T07:06:33.362Z,23.30
2022-12-04T07:09:01.438Z,24.17
2022-12-04T07:11:29.642Z,23.87
2022-12-04T07:13:57.084Z,23.37
2022-12-04T07:16:25.538Z,28.07
2022-12-04T07:18:54.184Z,29.53
2022-12-04T07:21:23.860Z,27.57
2022-12-04T07:23:52.034Z,27.47
2022-12-04T07:26:19.978Z,29.17
2022-12-04T07:28:47.528Z,24.30
2022-12-04T07:31:15.864Z,22.00
2022-12-04T07:33:43.397Z,20.77
2022-12-04T07:36:12.905Z,21.97
2022-12-04T07:38:42.244Z,21.37
2022-12-04T07:41:10.876Z,20.47
2022-12-04T07:43:38.580Z,18.27
2022-12-04T07:46:06.865Z,16.73
2022-12-04T07:48:34.624Z,16.87
2022-12-04T07:51:06.946Z,16.43
2022-12-04T07:53:35.006Z,17.20
2022-12-04T07:56:04.230Z,15.73
2022-12-04T07:58:31.697Z,16.53
2022-12-04T08:01:05.577Z,15.70
2022-12-04T08:03:33.139Z,14.93
2022-12-04T08:06:00.849Z,16.57
2022-12-04T08:08:28.287Z,19.50
2022-12-04T08:10:55.740Z,18.30
2022-12-04T08:13:24.554Z,20.20
2022-12-04T08:15:52.242Z,17.37
2022-12-04T08:18:20.002Z,17.00
2022-12-04T08:20:47.514Z,16.90
2022-12-04T08:23:14.923Z,16.03
2022-12-04T08:25:42.448Z,17.17
2022-12-04T08:28:09.871Z,17.93
2022-12-04T08:30:38.717Z,18.23
2022-12-04T08:33:06.419Z,17.20
2022-12-04T08:35:34.883Z,15.40
2022-12-04T08:38:02.356Z,14.83
2022-12-04T08:40:29.768Z,17.00
2022-12-04T08:42:57.191Z,20.30
2022-12-04T08:45:24.673Z,23.40
2022-12-04T08:47:53.461Z,22.47
2022-12-04T08:50:20.928Z,21.37
2022-12-04T08:52:48.388Z,21.20
2022-12-04T08:55:16.041Z,22.57
2022-12-04T08:57:43.631Z,19.33
2022-12-04T09:00:12.149Z,17.77
2022-12-04T09:02:39.714Z,18.03
2022-12-04T09:05:08.656Z,17.60
2022-12-04T09:07:36.136Z,18.13
2022-12-04T09:10:03.656Z,16.17
2022-12-04T09:12:31.109Z,15.23
2022-12-04T09:14:58.544Z,16.77
2022-12-04T09:17:26.012Z,14.13
2022-12-04T09:19:56.684Z,13.30
2022-12-04T09:22:45.628Z,14.00
2022-12-04T09:25:17.195Z,12.87
2022-12-04T09:27:45.501Z,13.13
2022-12-04T09:30:13.782Z,12.60
2022-12-04T09:32:41.396Z,12.47
2022-12-04T09:35:09.372Z,14.60
2022-12-04T09:37:38.568Z,14.70
2022-12-04T09:40:06.726Z,15.90
2022-12-04T09:42:38.683Z,15.73
2022-12-04T09:45:10.041Z,15.20
2022-12-04T09:47:39.496Z,14.83
2022-12-04T09:50:12.148Z,15.50
2022-12-04T09:52:45.075Z,17.87
2022-12-04T09:55:16.298Z,17.80
2022-12-04T09:57:44.947Z,20.00
2022-12-04T10:00:14.122Z,18.00
2022-12-04T10:02:42.981Z,18.73
2022-12-04T10:05:17.088Z,20.13
2022-12-04T10:07:50.079Z,24.43
2022-12-04T10:10:19.904Z,17.27
2022-12-04T10:12:52.107Z,15.37
2022-12-04T10:15:28.428Z,13.57
2022-12-04T10:18:12.386Z,15.40
2022-12-04T10:20:52.287Z,14.37
2022-12-04T10:23:24.812Z,14.17
2022-12-04T10:25:53.843Z,14.80
2022-12-04T10:28:25.331Z,15.33
2022-12-04T10:30:55.092Z,17.03
2022-12-04T10:33:24.718Z,16.33
2022-12-04T10:35:54.580Z,18.83
2022-12-04T10:38:29.598Z,19.57
2022-12-04T10:40:58.951Z,38.60
2022-12-04T10:43:29.684Z,34.23
2022-12-04T10:45:57.355Z,33.83
2022-12-04T10:48:30.292Z,30.10
2022-12-04T10:50:57.843Z,45.23
2022-12-04T10:53:29.851Z,85.40
2022-12-04T10:55:57.351Z,68.83
2022-12-04T10:58:27.044Z,28.57
2022-12-04T11:01:01.735Z,26.17
2022-12-04T11:03:29.957Z,25.57
2022-12-04T11:05:59.162Z,19.63
2022-12-04T11:08:31.886Z,18.90
2022-12-04T11:11:01.202Z,21.70
2022-12-04T11:13:28.664Z,21.80
2022-12-04T11:15:57.197Z,20.63
2022-12-04T11:18:25.912Z,19.13
2022-12-04T11:20:54.426Z,17.77
2022-12-04T11:23:22.236Z,20.43
2022-12-04T11:25:51.973Z,24.27
2022-12-04T11:28:41.058Z,16.53
2022-12-04T11:31:10.354Z,16.37
2022-12-04T11:33:39.876Z,25.07
2022-12-04T11:36:16.825Z,23.67
2022-12-04T11:38:44.298Z,22.83
2022-12-04T11:41:23.447Z,21.90
2022-12-04T11:43:54.127Z,21.80
2022-12-04T11:46:26.516Z,28.20
2022-12-04T11:48:54.047Z,32.03
2022-12-04T11:51:29.517Z,23.93
2022-12-04T11:54:00.450Z,23.17
2022-12-04T11:56:32.510Z,24.53
2022-12-04T11:59:17.605Z,33.10
2022-12-04T12:01:50.962Z,26.57
2022-12-04T12:04:37.910Z,24.13
2022-12-04T12:07:10.724Z,20.40
2022-12-04T12:09:42.602Z,24.90
2022-12-04T12:12:15.134Z,21.87
2022-12-04T12:14:45.463Z,23.60
2022-12-04T12:17:16.359Z,20.03
2022-12-04T12:20:04.006Z,17.60
2022-12-04T12:22:40.636Z,16.40
2022-12-04T12:25:13.726Z,17.00
2022-12-04T12:27:50.871Z,18.63
2022-12-04T12:30:20.043Z,21.77
2022-12-04T12:32:59.321Z,21.70
2022-12-04T12:35:30.723Z,18.77
2022-12-04T12:38:00.370Z,17.60
2022-12-04T12:40:33.295Z,18.40
2022-12-04T12:43:05.664Z,18.40
2022-12-04T12:45:37.286Z,17.33
2022-12-04T12:48:07.609Z,16.57
2022-12-04T12:50:40.102Z,17.13
2022-12-04T12:53:12.570Z,18.07
2022-12-04T12:55:41.827Z,16.60
2022-12-04T12:58:13.566Z,16.10
2022-12-04T13:00:44.714Z,15.37
2022-12-04T13:03:17.249Z,15.73
2022-12-04T13:05:46.520Z,13.33
2022-12-04T13:08:17.785Z,15.03
2022-12-04T13:10:47.024Z,16.47
2022-12-04T13:13:18.685Z,15.50
2022-12-04T13:15:48.802Z,15.27
2022-12-04T13:18:25.244Z,16.20
2022-12-04T13:20:54.587Z,16.53
2022-12-04T13:23:30.512Z,16.40
2022-12-04T13:26:01.656Z,16.23
2022-12-04T13:28:37.406Z,15.70
2022-12-04T13:31:10.239Z,15.70
2022-12-04T13:33:48.087Z,16.60
2022-12-04T13:36:30.780Z,15.57
2022-12-04T13:39:20.646Z,16.37
2022-12-04T13:41:48.274Z,16.87
2022-12-04T13:44:20.852Z,16.47
2022-12-04T13:46:52.249Z,18.20
2022-12-04T13:49:26.091Z,30.90
2022-12-04T13:51:53.792Z,20.20
2022-12-04T13:54:23.027Z,15.73
2022-12-04T13:56:51.326Z,16.73
2022-12-04T13:59:24.085Z,17.53
2022-12-04T14:01:52.472Z,16.97
2022-12-04T14:04:27.148Z,17.23
2022-12-04T14:06:56.947Z,17.47
2022-12-04T14:09:27.185Z,16.87
2022-12-04T14:11:57.588Z,17.07
2022-12-04T14:14:28.363Z,17.30
2022-12-04T14:16:56.401Z,17.23
2022-12-04T14:19:29.085Z,17.10
2022-12-04T14:21:56.608Z,16.03
2022-12-04T14:24:30.287Z,16.23
2022-12-04T14:27:12.290Z,16.30
2022-12-04T14:29:47.128Z,17.17
2022-12-04T14:32:16.566Z,15.77
2022-12-04T14:34:44.277Z,21.57
2022-12-04T14:37:19.477Z,15.60
2022-12-04T14:39:47.925Z,16.40
2022-12-04T14:42:17.038Z,18.87
2022-12-04T14:44:46.890Z,23.97
2022-12-04T14:47:20.150Z,18.53
2022-12-04T14:49:53.385Z,18.20
2022-12-04T14:52:26.237Z,21.37
2022-12-04T14:54:57.335Z,18.03
2022-12-04T14:57:42.108Z,17.87
2022-12-04T15:00:17.419Z,16.57
2022-12-04T15:02:46.236Z,18.40
2022-12-04T15:05:19.152Z,16.70
2022-12-04T15:07:48.583Z,21.20
2022-12-04T15:10:36.981Z,17.47
2022-12-04T15:13:04.504Z,19.23
2022-12-04T15:15:33.320Z,28.20
2022-12-04T15:18:02.387Z,20.77
2022-12-04T15:20:36.082Z,19.27
2022-12-04T15:23:06.423Z,19.23
2022-12-04T15:25:35.249Z,19.20
2022-12-04T15:28:04.817Z,24.20
2022-12-04T15:30:37.115Z,17.47
2022-12-04T15:33:05.422Z,20.43
2022-12-04T15:35:33.873Z,30.67
2022-12-04T15:38:02.081Z,23.50
2022-12-04T15:40:30.966Z,21.33
2022-12-04T15:43:08.461Z,23.17
2022-12-04T15:45:37.295Z,22.10
2022-12-04T15:48:04.869Z,18.00
2022-12-04T15:50:32.452Z,21.60
2022-12-04T15:53:01.726Z,21.53
2022-12-04T15:55:30.321Z,20.33
2022-12-04T15:57:58.735Z,19.13
2022-12-04T16:00:28.233Z,17.90
2022-12-04T16:02:57.380Z,17.87
2022-12-04T16:05:28.750Z,17.97
2022-12-04T16:07:57.384Z,15.87
2022-12-04T16:10:25.808Z,18.33
2022-12-04T16:12:54.300Z,19.63
2022-12-04T16:15:21.980Z,17.93
2022-12-04T16:17:49.618Z,22.00
2022-12-04T16:20:18.828Z,38.57
2022-12-04T16:22:46.704Z,26.30
2022-12-04T16:25:14.177Z,24.50
2022-12-04T16:27:41.640Z,19.47
2022-12-04T16:30:09.708Z,17.33
2022-12-04T16:32:37.330Z,20.17
2022-12-04T16:35:04.894Z,17.27
2022-12-04T16:37:33.646Z,18.53
2022-12-04T16:40:06.309Z,15.43
2022-12-04T16:42:34.911Z,14.23
2022-12-04T16:45:02.584Z,23.37
2022-12-04T16:47:30.035Z,18.40
2022-12-04T16:49:57.638Z,18.60
2022-12-04T16:52:25.258Z,17.90
2022-12-04T16:54:54.155Z,18.37
2022-12-04T16:57:22.180Z,16.93
2022-12-04T16:59:49.621Z,18.07
2022-12-04T17:02:18.925Z,20.03
2022-12-04T17:04:46.538Z,22.27
2022-12-04T17:07:14.037Z,23.40
2022-12-04T17:09:41.454Z,19.30
2022-12-04T17:12:10.330Z,19.23
2022-12-04T17:14:38.932Z,46.07
2022-12-04T17:17:06.416Z,20.60
2022-12-04T17:19:33.864Z,23.10
2022-12-04T17:22:01.438Z,20.77
2022-12-04T17:24:29.022Z,19.23
2022-12-04T17:26:56.452Z,21.47
2022-12-04T17:29:25.258Z,18.30
2022-12-04T17:31:52.849Z,16.57
2022-12-04T17:34:20.351Z,17.43
2022-12-04T17:36:47.827Z,14.97
2022-12-04T17:39:15.401Z,15.83
2022-12-04T17:41:42.888Z,12.30
2022-12-04T17:44:10.301Z,12.60
2022-12-04T17:46:39.265Z,13.40
2022-12-04T17:49:07.542Z,14.17
2022-12-04T17:51:35.770Z,13.57
2022-12-04T17:54:03.268Z,13.83
2022-12-04T17:56:30.859Z,13.87
2022-12-04T17:58:58.926Z,13.70
2022-12-04T18:01:27.685Z,15.93
2022-12-04T18:03:57.951Z,16.87
2022-12-04T18:06:26.293Z,12.47
2022-12-04T18:08:54.176Z,14.13
2022-12-04T18:11:23.546Z,14.03
2022-12-04T18:13:54.696Z,15.03
2022-12-04T18:16:22.280Z,13.93
2022-12-04T18:18:50.744Z,13.70
2022-12-04T18:21:19.786Z,13.43
2022-12-04T18:23:47.301Z,15.83
2022-12-04T18:26:15.932Z,15.77
2022-12-04T18:28:43.470Z,14.40
2022-12-04T18:31:10.994Z,14.70
2022-12-04T18:33:39.166Z,14.57
2022-12-04T18:36:09.133Z,14.50
2022-12-04T18:38:38.770Z,16.03
2022-12-04T18:41:07.346Z,15.40
2022-12-04T18:43:35.134Z,13.27
2022-12-04T18:46:07.410Z,16.00
2022-12-04T18:48:35.532Z,17.97
2022-12-04T18:51:02.978Z,14.27
2022-12-04T18:53:30.780Z,14.50
2022-12-04T18:56:03.286Z,17.10
2022-12-04T18:58:30.826Z,15.37
2022-12-04T19:01:04.860Z,13.47
2022-12-04T19:03:32.356Z,15.17
2022-12-04T19:05:59.898Z,16.00
2022-12-04T19:08:32.936Z,19.03
2022-12-04T19:11:06.998Z,13.30
2022-12-04T19:13:34.470Z,15.60
2022-12-04T19:16:01.952Z,11.93
2022-12-04T19:18:29.964Z,13.63
2022-12-04T19:20:57.712Z,12.37
2022-12-04T19:23:25.296Z,12.07
2022-12-04T19:25:55.830Z,12.13
2022-12-04T19:28:24.741Z,11.53
2022-12-04T19:30:52.707Z,12.23
2022-12-04T19:33:20.432Z,11.20
2022-12-04T19:35:56.475Z,11.47
2022-12-04T19:38:24.291Z,11.17
2022-12-04T19:40:51.768Z,11.67
2022-12-04T19:43:19.199Z,11.53
2022-12-04T19:45:50.087Z,10.70
2022-12-04T19:48:17.823Z,11.30
2022-12-04T19:50:45.290Z,10.63
2022-12-04T19:53:12.710Z,11.33
2022-12-04T19:55:40.218Z,10.63
2022-12-04T19:58:07.749Z,10.63
2022-12-04T20:00:35.232Z,10.33
2022-12-04T20:03:04.172Z,10.13
2022-12-04T20:05:31.714Z,27.80
2022-12-04T20:10:25.510Z,21.90
2022-12-04T20:12:52.959Z,39.80
2022-12-04T20:15:20.470Z,72.53
2022-12-04T20:17:47.938Z,35.97
2022-12-04T20:20:16.987Z,19.93
2022-12-04T20:22:44.423Z,13.10
2022-12-04T20:25:11.863Z,11.63
2022-12-04T20:27:39.381Z,10.97
2022-12-04T20:30:07.974Z,10.97
2022-12-04T20:32:35.452Z,13.07
2022-12-04T20:35:03.064Z,10.30
2022-12-04T20:37:31.865Z,10.93
2022-12-04T20:40:02.120Z,11.40
2022-12-04T20:42:33.428Z,11.00
2022-12-04T20:45:01.327Z,10.87
2022-12-04T20:47:28.982Z,10.10
2022-12-04T20:49:56.783Z,11.53
2022-12-04T20:52:24.510Z,10.93
2022-12-04T20:54:53.396Z,11.27
2022-12-04T20:57:22.431Z,11.43
2022-12-04T20:59:49.908Z,10.33
2022-12-04T21:02:17.371Z,10.43
2022-12-04T21:04:44.835Z,10.63
2022-12-04T21:07:12.295Z,10.77
2022-12-04T21:09:39.809Z,10.57
2022-12-04T21:12:29.216Z,11.17
2022-12-04T21:15:14.256Z,11.50
2022-12-04T21:17:41.999Z,11.80
2022-12-04T21:20:10.769Z,10.13
2022-12-04T21:22:38.601Z,11.00
2022-12-04T21:25:06.149Z,11.47
2022-12-04T21:27:34.976Z,10.93
2022-12-04T21:30:02.918Z,10.77
2022-12-04T21:32:30.351Z,10.03
2022-12-04T21:34:57.831Z,10.87
2022-12-04T21:37:25.276Z,10.20
2022-12-04T21:39:52.705Z,10.53
2022-12-04T21:42:32.847Z,10.47
2022-12-04T21:45:02.581Z,10.07
2022-12-04T21:47:30.407Z,9.93
2022-12-04T21:49:58.268Z,9.87
2022-12-04T21:52:25.930Z,10.20
2022-12-04T21:54:53.886Z,10.87
2022-12-04T21:57:21.881Z,9.20
2022-12-04T21:59:51.221Z,9.77
2022-12-04T22:02:20.315Z,8.57
2022-12-04T22:04:47.831Z,9.13
2022-12-04T22:07:15.431Z,8.20
2022-12-04T22:09:42.900Z,7.73
2022-12-04T22:12:33.275Z,6.80
2022-12-04T22:14:58.023Z,6.97
2022-12-04T22:17:29.286Z,6.93
2022-12-04T22:19:57.087Z,6.77
2022-12-04T22:22:24.756Z,5.03
2022-12-04T22:24:52.190Z,6.40
2022-12-04T22:27:19.618Z,6.33
2022-12-04T22:29:50.936Z,6.20
2022-12-04T22:32:18.938Z,5.63
2022-12-04T22:34:49.646Z,5.70
2022-12-04T22:37:17.516Z,5.63
2022-12-04T22:39:45.029Z,5.57
2022-12-04T22:42:12.495Z,5.00
2022-12-04T22:44:39.967Z,5.50
2022-12-04T22:47:07.488Z,5.47
2022-12-04T22:49:35.066Z,5.20
2022-12-04T22:52:03.839Z,5.60
2022-12-04T22:54:31.341Z,5.40
2022-12-04T22:56:58.777Z,6.00
2022-12-04T22:59:26.306Z,5.50
2022-12-04T23:01:53.719Z,6.27
2022-12-04T23:04:21.252Z,6.30
2022-12-04T23:06:48.699Z,6.43
2022-12-04T23:09:18.033Z,6.53
2022-12-04T23:11:45.587Z,6.33
2022-12-04T23:14:14.921Z,6.27
2022-12-04T23:16:42.653Z,7.03
2022-12-04T23:19:11.863Z,6.60
2022-12-04T23:21:39.851Z,6.50
2022-12-04T23:24:07.669Z,7.97
2022-12-04T23:26:37.804Z,8.30
2022-12-04T23:29:23.343Z,8.03
2022-12-04T23:31:53.095Z,8.17
2022-12-04T23:34:20.568Z,8.63
2022-12-04T23:36:48.010Z,9.77
2022-12-04T23:39:15.455Z,10.73
2022-12-04T23:41:44.218Z,9.60
2022-12-04T23:44:11.654Z,10.23
2022-12-04T23:46:39.134Z,10.67
2022-12-04T23:49:06.608Z,10.93
2022-12-04T23:51:34.037Z,10.33
2022-12-04T23:54:01.460Z,10.53
2022-12-04T23:56:29.251Z,10.93
2022-12-04T23:58:58.479Z,9.70
